Skip Navigation Links
NOAA logo - Click to go to the NOAA homepage
NOAA's National Weather Service
Alaska Aviation Weather Unit
  NWS logo - Click to go to the NWS homepage
Left Navbar Graphic     17 AKDT = 01 GMT

   
NOAA is celebrating 200 years of science, service, and stewardship. Visit the NOAA 200th celebration Web site to learn more.
USA.gov is the U.S. Government's official Web portal to all Federal, state and local government Web resources and services.
Facebook
NWS on Facebook

Important Change Regarding the AAWU Web Presence

 

Over the last several months, the AAWU has been working to navigate its webpages to a nationally supported server. Security, as well as other needs, have necessitated the change.  In the process, we have made an effort to enhance the functionality of our website, as well as some of our products. As of June 27, 2017, aawu.arh.noaa.gov will be discontinued. The new AAWU web address is weather.gov/aawu. It is now live and will run in-parallel with the old site until it is discontinued. Please send any feedback or questions regarding the new webpages to nws.ar.aawu.webauthors@noaa.gov.  Thank you for your patience during this time of transition.
AAWU Home :: Display TAF Add Bookmark
TAF PAVD 252323Z 2600/2624 25009KT P6SM FEW050 SCT100
     FM260600 08005KT P6SM FEW060 BKN100
     FM261300 VRB03KT P6SM OVC045
     FM262100 25007KT P6SM VCSH OVC035 AMD LTD TO CLD VIS AND
      WIND=

PAVD 251916Z 22005KT 10SM FEW023 FEW030 SCT120 15/09 A3000= METAR PAVD 251916Z 22005KT 10SM FEW023 FEW030 SCT120 15/09 A3000 RMK AO1 1847Z WEA: NONE TWR WND 00000KT= PAVD 251936Z 23005KT 10SM FEW023 FEW030 SCT120 15/08 A2999= METAR PAVD 251936Z 23005KT 10SM FEW023 FEW030 SCT120 15/08 A2999 RMK AO1 1847Z WEA: NONE TWR WND 00000KT= METAR PAVD 251956Z 23004KT 10SM FEW028 FEW120 15/08 A2999= PAVD 252016Z 26005KT 10SM FEW028 FEW120 15/08 A2998= METAR PAVD 252016Z 26005KT 10SM FEW028 FEW120 15/08 A2998 RMK AO1 1947Z WEA: NONE TWR WND 18005KT= PAVD 252036Z 25005KT 10SM FEW028 FEW120 16/08 A2998= METAR PAVD 252036Z 25005KT 10SM FEW028 FEW120 16/08 A2998 RMK AO1 1947Z WEA: NONE TWR WND 18005KT= METAR PAVD 252056Z 26004KT 10SM FEW120 SCT250 16/08 A2997= PAVD 252116Z 23004KT 10SM FEW120 SCT250 17/09 A2997= METAR PAVD 252116Z 23004KT 10SM FEW120 SCT250 17/09 A2997 RMK AO1 2047Z WEA: NONE TWR WND 18005KT= METAR PAVD 252136Z 24003KT 10SM FEW120 SCT250 17/08 A2996= METAR PAVD 252136Z 24003KT 10SM FEW120 SCT250 17/08 A2996 RMK AO1 2047Z WEA: NONE TWR WND 18005KT= METAR PAVD 252156Z 25005KT 10SM FEW042 FEW150 17/08 A2996= METAR PAVD 252216Z 23007KT 10SM FEW042 FEW150 17/08 A2996= METAR PAVD 252216Z 23007KT 10SM FEW042 FEW150 17/08 A2996 RMK AO1 2147Z WEA: NONE TWR WND 00000KT= METAR PAVD 252236Z 24007KT 10SM FEW042 FEW150 17/08 A2996= METAR PAVD 252236Z 24007KT 10SM FEW042 FEW150 17/08 A2996 RMK AO1 2147Z WEA: NONE TWR WND 00000KT= METAR PAVD 252256Z 25006KT 10SM FEW055 FEW100 17/08 A2995= PAVD 252316Z 23007KT 10SM FEW055 FEW100 17/08 A2995= METAR PAVD 252316Z 23007KT 10SM FEW055 FEW100 17/08 A2995 RMK AO1 2247Z WEA: NONE TWR WND 21008KT= PAVD 252336Z 23005KT 10SM FEW055 FEW100 17/08 A2995= METAR PAVD 252336Z 23005KT 10SM FEW055 FEW100 17/08 A2995 RMK AO1 2247Z WEA: NONE TWR WND 21008KT= METAR PAVD 252356Z 25007KT 10SM FEW100 17/09 A2995= PAVD 260016Z 26005KT 10SM FEW100 17/08 A2994= METAR PAVD 260016Z 26005KT 10SM FEW100 17/08 A2994 RMK AO1 2347Z WEA: NONE TWR WND 20007KT= PAVD 260036Z 26005KT 10SM FEW100 18/09 A2994= METAR PAVD 260036Z 26005KT 10SM FEW100 18/09 A2994 RMK AO1 2347Z WEA: NONE TWR WND 20007KT= METAR PAVD 260056Z 27006KT 10SM FEW075 FEW250 18/09 A2994= PAVD 260116Z 26007KT 10SM FEW075 FEW250 18/09 A2993= METAR PAVD 260116Z 26007KT 10SM FEW075 FEW250 18/09 A2993 RMK AO1 0047Z WEA: NONE TWR WND 18006KT= METAR PAVD 260136Z 26007KT 10SM FEW075 FEW250 18/08 A2993= METAR PAVD 260136Z 26007KT 10SM FEW075 FEW250 18/08 A2993 RMK AO1 0047Z WEA: NONE TWR WND 18006KT=
 Alaska TAF Map

NOAA's National Weather Service
Alaska Aviation Weather Unit
6930 Sand Lake Road
Anchorage, AK 99502-1845
Disclaimer
Credits
Glossary
Privacy Policy
About Us
Career Opportunities
Contact AAWU Internet Services Site last modified: April, 17th 2012